createdAt,value
2018-03-27T00:02:26.486Z,98.20
2018-03-27T00:04:55.330Z,98.27
2018-03-27T00:07:23.389Z,104.07
2018-03-27T00:09:53.189Z,104.53
2018-03-27T00:12:21.239Z,96.00
2018-03-27T00:14:50.090Z,93.07
2018-03-27T00:17:18.154Z,101.85
2018-03-27T00:19:46.224Z,95.43
2018-03-27T00:22:14.286Z,94.43
2018-03-27T00:24:43.245Z,94.83
2018-03-27T00:27:11.398Z,94.32
2018-03-27T00:29:57.484Z,91.40
2018-03-27T00:32:43.417Z,87.37
2018-03-27T00:35:29.318Z,84.72
2018-03-27T00:38:15.142Z,90.85
2018-03-27T00:40:43.277Z,91.73
2018-03-27T00:43:14.774Z,89.93
2018-03-27T00:45:42.845Z,97.27
2018-03-27T00:48:11.018Z,109.63
2018-03-27T00:50:39.090Z,100.70
2018-03-27T00:53:07.166Z,103.10
2018-03-27T00:55:35.234Z,89.23
2018-03-27T00:58:03.304Z,82.23
2018-03-27T01:00:32.222Z,96.40
2018-03-27T01:03:00.289Z,90.87
2018-03-27T01:05:28.333Z,95.73
2018-03-27T01:07:56.438Z,86.63
2018-03-27T01:10:24.494Z,97.37
2018-03-27T01:12:53.319Z,85.00
2018-03-27T01:15:21.871Z,102.67
2018-03-27T01:17:50.016Z,103.13
2018-03-27T01:20:18.059Z,92.93
2018-03-27T01:22:46.130Z,93.60
2018-03-27T01:25:14.200Z,100.13
2018-03-27T01:27:42.262Z,95.10
2018-03-27T01:30:10.365Z,100.93
2018-03-27T01:32:38.538Z,98.40
2018-03-27T01:35:06.626Z,92.88
2018-03-27T01:37:34.690Z,95.20
2018-03-27T01:40:02.759Z,97.95
2018-03-27T01:42:30.825Z,107.50
2018-03-27T01:44:58.887Z,97.22
2018-03-27T01:47:26.994Z,100.00
2018-03-27T01:49:55.053Z,106.23
2018-03-27T01:52:23.119Z,84.97
2018-03-27T01:54:52.941Z,107.12
2018-03-27T01:57:21.007Z,101.80
2018-03-27T01:59:49.113Z,112.37
2018-03-27T02:02:17.197Z,107.90
2018-03-27T02:04:45.262Z,103.70
2018-03-27T02:07:13.350Z,94.13
2018-03-27T02:09:41.408Z,100.53
2018-03-27T02:12:14.932Z,92.17
2018-03-27T02:14:48.577Z,101.97
2018-03-27T02:17:22.224Z,86.70
2018-03-27T02:19:56.011Z,96.10
2018-03-27T02:22:24.078Z,110.93
2018-03-27T02:24:52.290Z,94.77
2018-03-27T02:27:20.462Z,98.72
2018-03-27T02:29:48.513Z,93.77
2018-03-27T02:32:16.690Z,110.88
2018-03-27T02:34:44.748Z,107.30
2018-03-27T02:37:13.587Z,106.50
2018-03-27T02:39:41.668Z,125.70
2018-03-27T02:42:09.745Z,98.67
2018-03-27T02:44:37.802Z,95.70
2018-03-27T02:47:05.869Z,107.77
2018-03-27T02:49:33.930Z,105.83
2018-03-27T02:52:03.899Z,108.53
2018-03-27T02:54:33.129Z,120.23
2018-03-27T02:57:01.167Z,115.23
2018-03-27T02:59:29.246Z,122.90
2018-03-27T03:01:57.322Z,122.75
2018-03-27T03:04:25.384Z,113.05
2018-03-27T03:06:53.459Z,117.87
2018-03-27T03:09:21.560Z,110.65
2018-03-27T03:11:49.634Z,107.27
2018-03-27T03:14:17.697Z,120.63
2018-03-27T03:16:45.781Z,125.67
2018-03-27T03:19:13.863Z,131.93
2018-03-27T03:21:41.922Z,127.43
2018-03-27T03:24:09.998Z,122.30
2018-03-27T03:26:38.113Z,120.37
2018-03-27T03:29:06.134Z,128.43
2018-03-27T03:31:34.195Z,119.17
2018-03-27T03:34:02.261Z,127.62
2018-03-27T03:36:31.090Z,119.73
2018-03-27T03:38:59.154Z,124.00
2018-03-27T03:41:27.220Z,128.90
2018-03-27T03:43:55.282Z,130.93
2018-03-27T03:46:24.126Z,121.40
2018-03-27T03:48:52.194Z,121.00
2018-03-27T03:51:20.252Z,108.05
2018-03-27T03:53:48.323Z,123.70
2018-03-27T03:56:16.377Z,128.43
2018-03-27T03:58:45.243Z,130.07
2018-03-27T04:01:13.297Z,123.35
2018-03-27T04:03:41.370Z,118.83
2018-03-27T04:06:09.430Z,116.23
2018-03-27T04:08:37.550Z,108.23
2018-03-27T04:11:05.597Z,131.10
2018-03-27T04:13:35.017Z,129.60
2018-03-27T04:16:04.213Z,111.35
2018-03-27T04:18:32.279Z,115.93
2018-03-27T04:21:00.373Z,132.20
2018-03-27T04:23:28.444Z,116.30
2018-03-27T04:25:56.507Z,120.70
2018-03-27T04:28:24.581Z,134.97
2018-03-27T04:30:52.634Z,123.40
2018-03-27T04:33:20.698Z,126.33
2018-03-27T04:35:49.529Z,110.30
2018-03-27T04:38:17.590Z,121.10
2018-03-27T04:40:45.674Z,149.57
2018-03-27T04:43:13.726Z,115.47
2018-03-27T04:45:41.850Z,123.50
2018-03-27T04:48:09.918Z,145.83
2018-03-27T04:50:37.982Z,137.90
2018-03-27T04:53:06.057Z,144.65
2018-03-27T04:55:35.381Z,139.50
2018-03-27T04:58:04.665Z,123.40
2018-03-27T05:00:32.714Z,145.33
2018-03-27T05:03:00.784Z,133.77
2018-03-27T05:05:29.670Z,122.03
2018-03-27T05:07:58.530Z,144.02
2018-03-27T05:10:26.599Z,134.45
2018-03-27T05:12:54.655Z,137.55
2018-03-27T05:15:22.757Z,128.52
2018-03-27T05:17:50.826Z,116.33
2018-03-27T05:20:18.894Z,164.57
2018-03-27T05:22:46.989Z,153.27
2018-03-27T05:25:15.061Z,143.27
2018-03-27T05:27:43.146Z,144.93
2018-03-27T05:30:11.356Z,150.93
2018-03-27T05:32:40.178Z,131.90
2018-03-27T05:35:08.252Z,133.37
2018-03-27T05:37:36.318Z,124.47
2018-03-27T05:40:05.098Z,119.18
2018-03-27T05:42:35.043Z,139.07
2018-03-27T05:45:03.156Z,128.00
2018-03-27T05:47:31.338Z,146.07
2018-03-27T05:49:59.406Z,129.90
2018-03-27T05:52:27.458Z,123.67
2018-03-27T05:54:55.551Z,124.03
2018-03-27T05:57:23.610Z,122.73
2018-03-27T05:59:52.452Z,127.68
2018-03-27T06:02:20.514Z,122.22
2018-03-27T06:04:49.395Z,124.23
2018-03-27T06:07:17.468Z,125.50
2018-03-27T06:09:45.558Z,141.23
2018-03-27T06:12:13.630Z,127.47
2018-03-27T06:14:41.690Z,135.47
2018-03-27T06:17:09.836Z,143.70
2018-03-27T06:19:38.673Z,137.47
2018-03-27T06:22:06.747Z,130.48
2018-03-27T06:24:36.362Z,144.32
2018-03-27T06:27:05.549Z,135.23
2018-03-27T06:29:33.659Z,132.77
2018-03-27T06:32:01.724Z,149.23
2018-03-27T06:34:29.894Z,123.53
2018-03-27T06:36:58.143Z,133.10
2018-03-27T06:39:26.257Z,137.23
2018-03-27T06:41:54.322Z,148.33
2018-03-27T06:44:22.390Z,135.88
2018-03-27T06:46:50.451Z,155.43
2018-03-27T06:49:18.527Z,151.00
2018-03-27T06:51:46.577Z,148.07
2018-03-27T06:54:15.409Z,164.20
2018-03-27T06:56:44.025Z,161.43
2018-03-27T06:59:12.098Z,155.90
2018-03-27T07:01:40.166Z,183.98
2018-03-27T07:04:08.234Z,175.95
2018-03-27T07:06:36.286Z,152.95
2018-03-27T07:09:04.368Z,159.75
2018-03-27T07:11:32.806Z,166.10
2018-03-27T07:14:01.744Z,149.70
2018-03-27T07:16:31.290Z,145.27
2018-03-27T07:18:59.357Z,182.40
2018-03-27T07:21:27.443Z,168.77
2018-03-27T07:23:55.521Z,172.87
2018-03-27T07:26:23.587Z,160.93
2018-03-27T07:28:52.965Z,169.40
2018-03-27T07:31:21.050Z,174.33
2018-03-27T07:33:49.106Z,164.90
2018-03-27T07:36:17.582Z,145.90
2018-03-27T07:38:47.150Z,142.83
2018-03-27T07:41:15.218Z,146.73
2018-03-27T07:43:43.299Z,161.90
2018-03-27T07:46:11.361Z,154.38
2018-03-27T07:48:39.449Z,150.75
2018-03-27T07:51:07.511Z,153.70
2018-03-27T07:53:36.731Z,152.38
2018-03-27T07:56:04.806Z,165.35
2018-03-27T07:58:32.859Z,171.67
2018-03-27T08:01:00.923Z,154.35
2018-03-27T08:03:29.035Z,139.33
2018-03-27T08:05:57.117Z,125.15
2018-03-27T08:08:25.168Z,147.10
2018-03-27T08:10:54.083Z,158.83
2018-03-27T08:13:22.166Z,128.00
2018-03-27T08:15:50.301Z,137.20
2018-03-27T08:18:18.428Z,135.95
2018-03-27T08:20:46.491Z,114.70
2018-03-27T08:23:14.898Z,134.00
2018-03-27T08:25:42.972Z,120.05
2018-03-27T08:28:11.130Z,121.10
2018-03-27T08:30:39.310Z,133.17
2018-03-27T08:33:07.362Z,109.53
2018-03-27T08:35:35.430Z,115.57
2018-03-27T08:38:03.509Z,108.93
2018-03-27T08:40:31.594Z,110.10
2018-03-27T08:42:59.659Z,135.77
2018-03-27T08:45:27.766Z,114.63
2018-03-27T08:47:55.982Z,112.87
2018-03-27T08:50:24.130Z,106.97
2018-03-27T08:52:53.243Z,116.80
2018-03-27T08:55:21.407Z,92.33
2018-03-27T08:57:49.820Z,101.33
2018-03-27T09:00:17.970Z,109.07
2018-03-27T09:02:46.143Z,111.83
2018-03-27T09:05:14.165Z,115.93
2018-03-27T09:07:43.018Z,102.97
2018-03-27T09:10:11.206Z,103.10
2018-03-27T09:12:39.373Z,111.77
2018-03-27T09:15:07.805Z,101.93
2018-03-27T09:17:35.847Z,104.50
2018-03-27T09:20:03.918Z,93.37
2018-03-27T09:22:32.086Z,108.33
2018-03-27T09:25:00.979Z,93.72
2018-03-27T09:27:29.039Z,95.33
2018-03-27T09:29:57.097Z,93.70
2018-03-27T09:32:25.154Z,95.63
2018-03-27T09:34:53.997Z,94.13
2018-03-27T09:37:22.066Z,92.57
2018-03-27T09:39:50.162Z,92.97
2018-03-27T09:42:18.214Z,84.30
2018-03-27T09:44:46.326Z,87.97
2018-03-27T09:47:14.422Z,79.07
2018-03-27T09:49:43.475Z,76.32
2018-03-27T09:52:11.527Z,81.97
2018-03-27T09:54:39.586Z,78.40
2018-03-27T09:57:09.106Z,69.20
2018-03-27T09:59:38.281Z,84.83
2018-03-27T10:02:08.239Z,80.53
2018-03-27T10:04:36.304Z,80.10
2018-03-27T10:07:04.418Z,75.65
2018-03-27T10:09:32.489Z,67.47
2018-03-27T10:12:00.559Z,73.50
2018-03-27T10:14:28.610Z,75.17
2018-03-27T10:16:56.684Z,73.32
2018-03-27T10:19:24.730Z,69.80
2018-03-27T10:21:53.591Z,64.73
2018-03-27T10:24:21.664Z,66.80
2018-03-27T10:26:49.734Z,82.20
2018-03-27T10:29:17.818Z,63.80
2018-03-27T10:31:45.897Z,68.70
2018-03-27T10:34:13.954Z,56.60
2018-03-27T10:36:42.016Z,59.07
2018-03-27T10:39:10.830Z,65.65
2018-03-27T10:41:39.089Z,62.43
2018-03-27T10:44:07.138Z,61.13
2018-03-27T10:46:35.990Z,64.50
2018-03-27T10:49:04.062Z,53.53
2018-03-27T10:51:32.139Z,62.80
2018-03-27T10:54:00.195Z,60.00
2018-03-27T10:56:28.266Z,54.67
2018-03-27T10:58:56.321Z,56.23
2018-03-27T11:01:25.161Z,58.75
2018-03-27T11:03:53.225Z,46.90
2018-03-27T11:06:21.289Z,58.60
2018-03-27T11:08:49.342Z,59.80
2018-03-27T11:11:18.972Z,60.53
2018-03-27T11:13:47.030Z,57.70
2018-03-27T11:16:15.866Z,55.53
2018-03-27T11:18:44.629Z,59.88
2018-03-27T11:21:12.703Z,50.07
2018-03-27T11:23:40.758Z,51.50
2018-03-27T11:26:10.730Z,52.20
2018-03-27T11:28:39.537Z,53.77
2018-03-27T11:31:07.706Z,54.05
2018-03-27T11:33:35.778Z,49.13
2018-03-27T11:36:03.850Z,51.08
2018-03-27T11:38:31.902Z,51.70
2018-03-27T11:40:59.966Z,56.92
2018-03-27T11:43:28.022Z,47.33
2018-03-27T11:45:56.175Z,51.10
2018-03-27T11:48:24.293Z,42.25
2018-03-27T11:50:52.733Z,46.03
2018-03-27T11:53:20.911Z,40.50
2018-03-27T11:55:49.001Z,44.20
2018-03-27T11:58:17.166Z,37.23
2018-03-27T12:00:45.345Z,37.20
2018-03-27T12:03:13.523Z,32.73
2018-03-27T12:05:41.602Z,33.23
2018-03-27T12:08:10.894Z,38.88
2018-03-27T12:10:40.092Z,35.97
2018-03-27T12:13:08.154Z,36.30
2018-03-27T12:15:36.252Z,38.33
2018-03-27T12:18:04.323Z,40.10
2018-03-27T12:20:32.403Z,42.77
2018-03-27T12:23:00.582Z,37.53
2018-03-27T12:25:28.933Z,34.50
2018-03-27T12:27:57.020Z,32.53
2018-03-27T12:30:25.093Z,35.07
2018-03-27T12:32:53.198Z,32.50
2018-03-27T12:35:21.262Z,25.10
2018-03-27T12:37:49.349Z,34.30
2018-03-27T12:40:17.405Z,35.28
2018-03-27T12:42:45.483Z,37.28
2018-03-27T12:45:13.544Z,30.50
2018-03-27T12:47:41.646Z,26.97
2018-03-27T12:50:11.335Z,35.92
2018-03-27T12:52:40.547Z,36.13
2018-03-27T12:55:09.066Z,30.52
2018-03-27T12:57:37.954Z,34.70
2018-03-27T13:00:06.034Z,30.52
2018-03-27T13:02:34.105Z,38.90
2018-03-27T13:05:02.177Z,35.60
2018-03-27T13:07:30.262Z,37.03
2018-03-27T13:09:58.326Z,37.88
2018-03-27T13:12:26.388Z,38.20
2018-03-27T13:14:54.447Z,37.77
2018-03-27T13:17:22.561Z,41.67
2018-03-27T13:19:50.640Z,43.50
2018-03-27T13:22:18.706Z,40.42
2018-03-27T13:24:46.791Z,46.30
2018-03-27T13:27:14.869Z,47.70
2018-03-27T13:29:42.921Z,43.67
2018-03-27T13:32:11.967Z,39.45
2018-03-27T13:34:41.149Z,36.13
2018-03-27T13:37:09.390Z,46.40
2018-03-27T13:39:37.450Z,42.27
2018-03-27T13:42:06.286Z,41.17
2018-03-27T13:44:34.365Z,50.73
2018-03-27T13:47:02.432Z,33.83
2018-03-27T13:49:30.498Z,31.53
2018-03-27T13:51:58.898Z,35.90
2018-03-27T13:54:26.979Z,39.50
2018-03-27T13:56:55.178Z,33.47
2018-03-27T13:59:23.339Z,31.75
2018-03-27T14:01:53.207Z,34.63
2018-03-27T14:04:22.044Z,34.67
2018-03-27T14:06:50.172Z,35.73
2018-03-27T14:09:18.205Z,31.73
2018-03-27T14:11:46.282Z,27.73
2018-03-27T14:14:14.361Z,33.33
2018-03-27T14:16:42.434Z,32.63
2018-03-27T14:19:11.630Z,35.87
2018-03-27T14:21:39.810Z,37.70
2018-03-27T14:24:07.890Z,42.47
2018-03-27T14:26:36.057Z,37.70
2018-03-27T14:29:04.238Z,36.35
2018-03-27T14:31:32.298Z,42.23
2018-03-27T14:34:00.414Z,32.43
2018-03-27T14:36:28.489Z,41.10
2018-03-27T14:38:57.539Z,37.63
2018-03-27T14:41:25.655Z,41.90
2018-03-27T14:43:53.746Z,37.90
2018-03-27T14:46:21.810Z,37.88
2018-03-27T14:48:49.982Z,39.30
2018-03-27T14:51:18.061Z,34.80
2018-03-27T14:53:46.126Z,43.58
2018-03-27T14:56:14.184Z,41.33
2018-03-27T14:58:42.252Z,41.37
2018-03-27T15:01:10.316Z,36.38
2018-03-27T15:03:38.434Z,41.10
2018-03-27T15:06:06.490Z,42.40
2018-03-27T15:08:34.589Z,45.30
2018-03-27T15:11:03.378Z,33.63
2018-03-27T15:13:31.446Z,40.20
2018-03-27T15:15:59.512Z,35.00
2018-03-27T15:18:27.606Z,36.43
2018-03-27T15:20:55.694Z,39.10
2018-03-27T15:23:23.866Z,37.20
2018-03-27T15:25:52.158Z,33.10
2018-03-27T15:28:20.233Z,37.97
2018-03-27T15:30:48.290Z,36.77
2018-03-27T15:33:16.367Z,36.43
2018-03-27T15:35:45.266Z,34.50
2018-03-27T15:38:13.327Z,33.53
2018-03-27T15:40:41.390Z,37.33
2018-03-27T15:43:09.494Z,36.93
2018-03-27T15:45:37.557Z,42.93
2018-03-27T15:48:05.630Z,36.33
2018-03-27T15:50:35.681Z,35.33
2018-03-27T15:53:04.574Z,39.37
2018-03-27T15:55:32.674Z,36.73
2018-03-27T15:58:00.836Z,42.97
2018-03-27T16:00:28.891Z,39.33
2018-03-27T16:02:57.197Z,40.60
2018-03-27T16:05:25.259Z,37.90
2018-03-27T16:07:53.450Z,35.77
2018-03-27T16:10:21.555Z,44.60
2018-03-27T16:12:50.596Z,42.53
2018-03-27T16:15:18.653Z,39.33
2018-03-27T16:17:46.730Z,41.47
2018-03-27T16:20:14.807Z,36.20
2018-03-27T16:22:44.344Z,36.03
2018-03-27T16:25:13.392Z,38.25
2018-03-27T16:27:43.349Z,37.43
2018-03-27T16:30:11.677Z,40.23
2018-03-27T16:32:39.754Z,44.37
2018-03-27T16:35:08.777Z,45.67
2018-03-27T16:37:37.619Z,42.70
2018-03-27T16:40:05.714Z,44.45
2018-03-27T16:42:33.830Z,43.33
2018-03-27T16:45:02.042Z,45.03
2018-03-27T16:47:30.130Z,39.20
2018-03-27T16:49:58.194Z,44.35
2018-03-27T16:52:26.498Z,39.50
2018-03-27T16:54:54.679Z,42.67
2018-03-27T16:57:22.812Z,41.60
2018-03-27T16:59:50.938Z,41.17
2018-03-27T17:02:19.206Z,42.83
2018-03-27T17:04:47.285Z,47.67
2018-03-27T17:07:15.334Z,75.70
2018-03-27T17:09:57.545Z,46.45
2018-03-27T17:12:25.636Z,39.65
2018-03-27T17:15:06.703Z,40.70
2018-03-27T17:17:35.089Z,43.27
2018-03-27T17:20:03.250Z,34.92
2018-03-27T17:22:31.298Z,44.50
2018-03-27T17:24:59.425Z,41.50
2018-03-27T17:27:27.766Z,40.58
2018-03-27T17:29:55.821Z,41.93
2018-03-27T17:32:24.662Z,42.43
2018-03-27T17:34:52.741Z,43.23
2018-03-27T17:37:21.017Z,43.67
2018-03-27T17:39:49.109Z,51.88
2018-03-27T17:42:17.159Z,42.40
2018-03-27T17:44:45.254Z,46.53
2018-03-27T17:47:14.540Z,46.17
2018-03-27T17:49:42.646Z,40.85
2018-03-27T17:52:10.675Z,51.37
2018-03-27T17:54:38.782Z,45.70
2018-03-27T17:57:06.865Z,43.05
2018-03-27T17:59:34.942Z,64.07
2018-03-27T18:02:03.033Z,67.25
2018-03-27T18:04:31.389Z,52.70
2018-03-27T18:07:01.297Z,57.93
2018-03-27T18:09:29.358Z,40.58
2018-03-27T18:11:57.410Z,54.27
2018-03-27T18:14:26.362Z,48.28
2018-03-27T18:16:54.623Z,51.73
2018-03-27T18:19:22.694Z,51.67
2018-03-27T18:21:51.654Z,43.93
2018-03-27T18:24:20.490Z,50.15
2018-03-27T18:26:48.866Z,46.17
2018-03-27T18:29:16.978Z,45.60
2018-03-27T18:31:45.925Z,47.67
2018-03-27T18:34:15.117Z,48.50
2018-03-27T18:36:45.086Z,49.37
2018-03-27T18:39:13.345Z,50.17
2018-03-27T18:41:41.400Z,54.53
2018-03-27T18:44:09.459Z,50.23
2018-03-27T18:46:38.276Z,46.20
2018-03-27T18:49:06.444Z,48.08
2018-03-27T18:51:35.258Z,61.40
2018-03-27T18:54:03.335Z,49.67
2018-03-27T18:56:31.454Z,48.78
2018-03-27T18:58:59.630Z,44.88
2018-03-27T19:01:27.670Z,48.80
2018-03-27T19:03:55.926Z,46.80
2018-03-27T19:06:24.761Z,51.27
2018-03-27T19:08:52.821Z,67.33
2018-03-27T19:11:21.252Z,60.93
2018-03-27T19:13:49.454Z,49.97
2018-03-27T19:16:17.642Z,47.57
2018-03-27T19:18:46.102Z,57.55
2018-03-27T19:21:14.561Z,56.70
2018-03-27T19:23:42.641Z,48.17
2018-03-27T19:26:10.711Z,48.30
2018-03-27T19:28:38.786Z,45.00
2018-03-27T19:31:06.969Z,53.83
2018-03-27T19:33:35.350Z,42.25
2018-03-27T19:36:03.429Z,53.20
2018-03-27T19:38:31.608Z,56.03
2018-03-27T19:40:59.759Z,48.33
2018-03-27T19:43:27.844Z,45.13
2018-03-27T19:45:56.712Z,40.53
2018-03-27T19:48:24.831Z,44.37
2018-03-27T19:50:52.994Z,45.57
2018-03-27T19:53:21.086Z,51.37
2018-03-27T19:55:49.184Z,46.77
2018-03-27T19:58:17.230Z,53.70
2018-03-27T20:00:46.405Z,51.43
2018-03-27T20:03:15.196Z,47.53
2018-03-27T20:05:43.289Z,41.80
2018-03-27T20:08:11.338Z,46.90
2018-03-27T20:10:39.406Z,52.03
2018-03-27T20:13:08.254Z,99.77
2018-03-27T20:15:41.704Z,55.83
2018-03-27T20:18:04.615Z,47.17
2018-03-27T20:20:32.680Z,44.90
2018-03-27T20:23:01.093Z,46.63
2018-03-27T20:25:29.194Z,47.30
2018-03-27T20:27:58.051Z,50.40
2018-03-27T20:30:26.106Z,61.33
2018-03-27T20:32:54.272Z,45.40
2018-03-27T20:35:22.362Z,40.30
2018-03-27T20:37:50.450Z,43.53
2018-03-27T20:40:18.518Z,49.50
2018-03-27T20:42:47.659Z,51.08
2018-03-27T20:45:15.722Z,50.03
2018-03-27T20:47:43.771Z,56.93
2018-03-27T20:50:12.078Z,49.37
2018-03-27T20:52:40.139Z,43.77
2018-03-27T20:55:08.202Z,49.20
2018-03-27T20:57:36.335Z,52.90
2018-03-27T21:00:05.358Z,38.20
2018-03-27T21:02:33.461Z,48.30
2018-03-27T21:05:02.046Z,42.25
2018-03-27T21:07:30.161Z,49.67
2018-03-27T21:09:59.298Z,40.00
2018-03-27T21:12:27.439Z,45.12
2018-03-27T21:14:56.295Z,40.73
2018-03-27T21:17:24.367Z,42.47
2018-03-27T21:19:52.646Z,43.10
2018-03-27T21:22:20.738Z,42.00
2018-03-27T21:24:48.789Z,43.10
2018-03-27T21:27:18.109Z,42.90
2018-03-27T21:29:46.406Z,34.87
2018-03-27T21:32:14.476Z,38.50
2018-03-27T21:34:42.529Z,40.73
2018-03-27T21:37:10.734Z,36.50
2018-03-27T21:39:39.124Z,39.33
2018-03-27T21:42:07.988Z,38.97
2018-03-27T21:44:36.393Z,37.20
2018-03-27T21:47:05.502Z,41.37
2018-03-27T21:49:34.489Z,35.58
2018-03-27T21:52:02.566Z,31.97
2018-03-27T21:54:30.865Z,30.50
2018-03-27T21:56:59.806Z,34.10
2018-03-27T21:59:27.870Z,29.97
2018-03-27T22:01:56.693Z,29.90
2018-03-27T22:04:24.755Z,25.00
2018-03-27T22:06:52.834Z,25.98
2018-03-27T22:09:20.886Z,24.10
2018-03-27T22:11:49.728Z,29.23
2018-03-27T22:14:18.655Z,21.00
2018-03-27T22:16:46.807Z,24.93
2018-03-27T22:19:14.878Z,30.43
2018-03-27T22:21:42.954Z,30.33
2018-03-27T22:24:11.028Z,23.43
2018-03-27T22:26:39.084Z,25.50
2018-03-27T22:29:07.234Z,27.45
2018-03-27T22:31:36.894Z,24.10
2018-03-27T22:34:05.087Z,23.95
2018-03-27T22:36:33.250Z,24.20
2018-03-27T22:39:01.320Z,27.43
2018-03-27T22:41:29.375Z,21.77
2018-03-27T22:43:57.437Z,28.97
2018-03-27T22:46:26.262Z,28.10
2018-03-27T22:48:54.344Z,23.00
2018-03-27T22:51:22.397Z,25.12
2018-03-27T22:53:50.507Z,26.97
2018-03-27T22:56:19.506Z,21.65
2018-03-27T22:58:47.573Z,23.10
2018-03-27T23:01:15.654Z,25.00
2018-03-27T23:03:43.725Z,20.93
2018-03-27T23:06:11.875Z,27.10
2018-03-27T23:08:39.990Z,30.83
2018-03-27T23:11:08.066Z,23.73
2018-03-27T23:13:36.130Z,24.27
2018-03-27T23:16:04.198Z,26.65
2018-03-27T23:18:32.253Z,24.77
2018-03-27T23:21:00.376Z,22.67
2018-03-27T23:23:28.550Z,23.35
2018-03-27T23:25:56.626Z,21.93
2018-03-27T23:28:24.706Z,30.83
2018-03-27T23:30:52.764Z,24.40
2018-03-27T23:33:20.822Z,26.00
2018-03-27T23:35:49.989Z,28.62
2018-03-27T23:38:19.946Z,25.98
2018-03-27T23:40:48.106Z,24.63
2018-03-27T23:43:16.930Z,31.90
2018-03-27T23:45:45.066Z,23.60
2018-03-27T23:48:13.106Z,25.13
2018-03-27T23:50:41.170Z,28.10
2018-03-27T23:53:09.265Z,24.85
2018-03-27T23:55:37.450Z,24.73
2018-03-27T23:58:05.507Z,22.58
